sensor_id;sensor_type;location;lat;lon;timestamp;pressure;altitude;pressure_sealevel;temperature;humidity
30618;BME280;17384;51.214;9.202;2023-01-28T00:00:27;99710.44;;;-0.29;83.22
30618;BME280;17384;51.214;9.202;2023-01-28T00:02:53;99699.28;;;-0.35;83.56
30618;BME280;17384;51.214;9.202;2023-01-28T00:05:18;99704.63;;;-0.35;83.52
30618;BME280;17384;51.214;9.202;2023-01-28T00:07:44;99695.41;;;-0.42;83.67
30618;BME280;17384;51.214;9.202;2023-01-28T00:10:09;99688.38;;;-0.43;83.77
30618;BME280;17384;51.214;9.202;2023-01-28T00:12:36;99707.78;;;-0.41;83.61
30618;BME280;17384;51.214;9.202;2023-01-28T00:15:02;99697.13;;;-0.41;83.52
30618;BME280;17384;51.214;9.202;2023-01-28T00:17:27;99687.91;;;-0.37;83.88
30618;BME280;17384;51.214;9.202;2023-01-28T00:19:53;99686.22;;;-0.38;83.19
30618;BME280;17384;51.214;9.202;2023-01-28T00:22:18;99677.00;;;-0.33;83.03
30618;BME280;17384;51.214;9.202;2023-01-28T00:24:45;99681.84;;;-0.39;83.30
30618;BME280;17384;51.214;9.202;2023-01-28T00:27:10;99679.44;;;-0.42;83.55
30618;BME280;17384;51.214;9.202;2023-01-28T00:29:36;99660.53;;;-0.50;83.91
30618;BME280;17384;51.214;9.202;2023-01-28T00:32:02;99673.50;;;-0.45;83.88
30618;BME280;17384;51.214;9.202;2023-01-28T00:34:28;99663.00;;;-0.58;84.20
30618;BME280;17384;51.214;9.202;2023-01-28T00:36:54;99666.09;;;-0.53;83.98
30618;BME280;17384;51.214;9.202;2023-01-28T00:39:23;99665.63;;;-0.47;83.66
30618;BME280;17384;51.214;9.202;2023-01-28T00:41:50;99660.16;;;-0.45;83.48
30618;BME280;17384;51.214;9.202;2023-01-28T00:44:15;99658.97;;;-0.52;83.55
30618;BME280;17384;51.214;9.202;2023-01-28T00:46:41;99667.81;;;-0.52;83.38
30618;BME280;17384;51.214;9.202;2023-01-28T00:49:07;99670.59;;;-0.53;83.44
30618;BME280;17384;51.214;9.202;2023-01-28T00:51:33;99671.19;;;-0.50;83.35
30618;BME280;17384;51.214;9.202;2023-01-28T00:53:58;99664.41;;;-0.54;83.37
30618;BME280;17384;51.214;9.202;2023-01-28T00:56:24;99670.34;;;-0.50;83.07
30618;BME280;17384;51.214;9.202;2023-01-28T00:58:49;99678.50;;;-0.63;83.25
30618;BME280;17384;51.214;9.202;2023-01-28T01:01:20;99674.25;;;-0.65;83.21
30618;BME280;17384;51.214;9.202;2023-01-28T01:03:46;99678.63;;;-0.76;83.77
30618;BME280;17384;51.214;9.202;2023-01-28T01:06:14;99663.72;;;-0.78;83.76
30618;BME280;17384;51.214;9.202;2023-01-28T01:08:40;99672.44;;;-0.76;83.62
30618;BME280;17384;51.214;9.202;2023-01-28T01:11:08;99666.78;;;-0.94;84.16
30618;BME280;17384;51.214;9.202;2023-01-28T01:13:34;99665.19;;;-0.96;84.31
30618;BME280;17384;51.214;9.202;2023-01-28T01:16:04;99662.66;;;-1.09;84.74
30618;BME280;17384;51.214;9.202;2023-01-28T01:18:30;99670.41;;;-1.17;84.80
30618;BME280;17384;51.214;9.202;2023-01-28T01:20:55;99665.81;;;-1.15;84.76
30618;BME280;17384;51.214;9.202;2023-01-28T01:23:27;99679.22;;;-1.06;84.19
30618;BME280;17384;51.214;9.202;2023-01-28T01:25:53;99691.94;;;-0.98;83.85
30618;BME280;17384;51.214;9.202;2023-01-28T01:28:19;99676.81;;;-0.97;83.60
30618;BME280;17384;51.214;9.202;2023-01-28T01:30:45;99682.63;;;-0.92;83.13
30618;BME280;17384;51.214;9.202;2023-01-28T01:33:11;99679.84;;;-0.91;83.59
30618;BME280;17384;51.214;9.202;2023-01-28T01:35:36;99694.25;;;-0.93;83.54
30618;BME280;17384;51.214;9.202;2023-01-28T01:38:02;99702.72;;;-1.11;84.54
30618;BME280;17384;51.214;9.202;2023-01-28T01:40:28;99695.84;;;-1.13;84.66
30618;BME280;17384;51.214;9.202;2023-01-28T01:42:54;99694.97;;;-1.14;84.50
30618;BME280;17384;51.214;9.202;2023-01-28T01:45:20;99690.13;;;-1.20;84.82
30618;BME280;17384;51.214;9.202;2023-01-28T01:47:59;99693.63;;;-1.19;84.42
30618;BME280;17384;51.214;9.202;2023-01-28T01:53:03;99691.22;;;-1.22;84.53
30618;BME280;17384;51.214;9.202;2023-01-28T01:55:34;99687.13;;;-1.15;84.33
30618;BME280;17384;51.214;9.202;2023-01-28T01:58:04;99686.63;;;-1.20;84.38
30618;BME280;17384;51.214;9.202;2023-01-28T02:00:31;99690.25;;;-1.21;84.67
30618;BME280;17384;51.214;9.202;2023-01-28T02:02:56;99676.31;;;-1.25;84.58
30618;BME280;17384;51.214;9.202;2023-01-28T02:05:23;99683.59;;;-1.16;84.42
30618;BME280;17384;51.214;9.202;2023-01-28T02:07:51;99685.53;;;-1.18;84.70
30618;BME280;17384;51.214;9.202;2023-01-28T02:10:20;99689.97;;;-1.29;85.06
30618;BME280;17384;51.214;9.202;2023-01-28T02:12:52;99684.66;;;-1.29;85.36
30618;BME280;17384;51.214;9.202;2023-01-28T02:15:22;99694.84;;;-1.23;85.20
30618;BME280;17384;51.214;9.202;2023-01-28T02:17:49;99696.88;;;-1.27;85.28
30618;BME280;17384;51.214;9.202;2023-01-28T02:20:36;99705.94;;;-1.29;85.31
30618;BME280;17384;51.214;9.202;2023-01-28T02:23:26;99697.72;;;-1.26;85.70
30618;BME280;17384;51.214;9.202;2023-01-28T02:29:24;99709.47;;;-1.29;85.67
30618;BME280;17384;51.214;9.202;2023-01-28T02:31:52;99698.34;;;-1.23;85.37
30618;BME280;17384;51.214;9.202;2023-01-28T02:34:51;99721.56;;;-1.25;85.68
30618;BME280;17384;51.214;9.202;2023-01-28T02:37:31;99701.50;;;-1.18;85.45
30618;BME280;17384;51.214;9.202;2023-01-28T02:40:07;99713.34;;;-1.22;85.47
30618;BME280;17384;51.214;9.202;2023-01-28T02:42:36;99700.03;;;-1.22;85.18
30618;BME280;17384;51.214;9.202;2023-01-28T02:45:06;99712.84;;;-1.27;85.30
30618;BME280;17384;51.214;9.202;2023-01-28T02:47:36;99706.81;;;-1.29;85.06
30618;BME280;17384;51.214;9.202;2023-01-28T02:50:20;99714.78;;;-1.29;85.24
30618;BME280;17384;51.214;9.202;2023-01-28T02:52:58;99722.03;;;-1.31;85.24
30618;BME280;17384;51.214;9.202;2023-01-28T03:06:21;99728.94;;;-1.28;85.19
30618;BME280;17384;51.214;9.202;2023-01-28T03:08:52;99725.53;;;-1.30;85.15
30618;BME280;17384;51.214;9.202;2023-01-28T03:11:43;99716.72;;;-1.31;85.14
30618;BME280;17384;51.214;9.202;2023-01-28T03:14:31;99730.75;;;-1.29;84.95
30618;BME280;17384;51.214;9.202;2023-01-28T03:17:34;99717.34;;;-1.27;84.87
30618;BME280;17384;51.214;9.202;2023-01-28T03:20:20;99718.41;;;-1.30;84.89
30618;BME280;17384;51.214;9.202;2023-01-28T03:23:09;99728.31;;;-1.32;84.59
30618;BME280;17384;51.214;9.202;2023-01-28T03:25:58;99726.63;;;-1.33;84.29
30618;BME280;17384;51.214;9.202;2023-01-28T03:28:45;99725.91;;;-1.35;84.15
30618;BME280;17384;51.214;9.202;2023-01-28T03:31:32;99721.56;;;-1.25;83.61
30618;BME280;17384;51.214;9.202;2023-01-28T03:34:19;99731.53;;;-1.16;83.38
30618;BME280;17384;51.214;9.202;2023-01-28T03:37:04;99732.84;;;-1.21;83.36
30618;BME280;17384;51.214;9.202;2023-01-28T03:39:29;99746.25;;;-1.23;83.41
30618;BME280;17384;51.214;9.202;2023-01-28T03:42:07;99751.81;;;-1.26;83.97
30618;BME280;17384;51.214;9.202;2023-01-28T03:44:33;99748.69;;;-1.20;83.63
30618;BME280;17384;51.214;9.202;2023-01-28T03:47:23;99743.25;;;-1.18;83.68
30618;BME280;17384;51.214;9.202;2023-01-28T03:49:51;99737.53;;;-1.25;83.82
30618;BME280;17384;51.214;9.202;2023-01-28T03:52:24;99740.22;;;-1.25;83.53
30618;BME280;17384;51.214;9.202;2023-01-28T03:54:50;99756.28;;;-1.26;83.36
30618;BME280;17384;51.214;9.202;2023-01-28T03:57:22;99754.47;;;-1.26;83.21
30618;BME280;17384;51.214;9.202;2023-01-28T03:59:48;99746.03;;;-1.20;82.24
30618;BME280;17384;51.214;9.202;2023-01-28T04:02:14;99744.09;;;-1.18;81.81
30618;BME280;17384;51.214;9.202;2023-01-28T04:04:40;99745.28;;;-1.22;81.75
30618;BME280;17384;51.214;9.202;2023-01-28T04:07:08;99756.91;;;-1.23;81.95
30618;BME280;17384;51.214;9.202;2023-01-28T04:09:37;99747.72;;;-1.19;82.01
30618;BME280;17384;51.214;9.202;2023-01-28T04:12:03;99747.34;;;-1.25;81.89
30618;BME280;17384;51.214;9.202;2023-01-28T04:14:29;99749.06;;;-1.13;81.32
30618;BME280;17384;51.214;9.202;2023-01-28T04:16:55;99738.38;;;-1.24;81.33
30618;BME280;17384;51.214;9.202;2023-01-28T04:19:21;99751.69;;;-1.24;81.52
30618;BME280;17384;51.214;9.202;2023-01-28T04:21:47;99745.16;;;-1.31;81.37
30618;BME280;17384;51.214;9.202;2023-01-28T04:24:13;99759.06;;;-1.28;81.22
30618;BME280;17384;51.214;9.202;2023-01-28T04:26:39;99760.31;;;-1.21;80.90
30618;BME280;17384;51.214;9.202;2023-01-28T04:29:05;99763.81;;;-1.20;80.59
30618;BME280;17384;51.214;9.202;2023-01-28T04:31:31;99741.91;;;-1.24;80.79
30618;BME280;17384;51.214;9.202;2023-01-28T04:33:57;99736.69;;;-1.25;80.61
30618;BME280;17384;51.214;9.202;2023-01-28T04:36:23;99747.63;;;-1.17;80.55
30618;BME280;17384;51.214;9.202;2023-01-28T04:38:48;99745.44;;;-1.12;80.52
30618;BME280;17384;51.214;9.202;2023-01-28T04:41:14;99744.47;;;-1.11;80.42
30618;BME280;17384;51.214;9.202;2023-01-28T04:43:39;99744.09;;;-1.18;80.44
30618;BME280;17384;51.214;9.202;2023-01-28T04:46:05;99743.88;;;-1.15;80.31
30618;BME280;17384;51.214;9.202;2023-01-28T04:48:30;99754.28;;;-1.12;79.75
30618;BME280;17384;51.214;9.202;2023-01-28T04:50:56;99744.38;;;-1.10;79.74
30618;BME280;17384;51.214;9.202;2023-01-28T04:53:21;99746.75;;;-1.07;79.91
30618;BME280;17384;51.214;9.202;2023-01-28T04:55:47;99744.09;;;-1.07;79.61
30618;BME280;17384;51.214;9.202;2023-01-28T04:58:12;99758.41;;;-0.96;78.90
30618;BME280;17384;51.214;9.202;2023-01-28T05:00:38;99742.91;;;-1.03;78.95
30618;BME280;17384;51.214;9.202;2023-01-28T05:03:04;99749.53;;;-1.08;79.20
30618;BME280;17384;51.214;9.202;2023-01-28T05:05:29;99761.66;;;-1.04;79.29
30618;BME280;17384;51.214;9.202;2023-01-28T05:07:56;99753.66;;;-1.04;78.63
30618;BME280;17384;51.214;9.202;2023-01-28T05:10:22;99748.47;;;-1.06;78.13
30618;BME280;17384;51.214;9.202;2023-01-28T05:12:48;99758.53;;;-0.98;78.30
30618;BME280;17384;51.214;9.202;2023-01-28T05:15:15;99762.88;;;-0.97;79.42
30618;BME280;17384;51.214;9.202;2023-01-28T05:17:41;99757.69;;;-0.98;79.54
30618;BME280;17384;51.214;9.202;2023-01-28T05:20:08;99748.34;;;-1.15;81.17
30618;BME280;17384;51.214;9.202;2023-01-28T05:22:34;99759.22;;;-1.18;80.75
30618;BME280;17384;51.214;9.202;2023-01-28T05:24:59;99760.75;;;-1.27;79.06
30618;BME280;17384;51.214;9.202;2023-01-28T05:27:28;99756.91;;;-1.23;77.99
30618;BME280;17384;51.214;9.202;2023-01-28T05:29:53;99767.72;;;-1.13;77.83
30618;BME280;17384;51.214;9.202;2023-01-28T05:32:19;99756.44;;;-1.17;78.55
30618;BME280;17384;51.214;9.202;2023-01-28T05:34:44;99757.75;;;-1.22;78.52
30618;BME280;17384;51.214;9.202;2023-01-28T05:37:09;99761.00;;;-1.30;78.01
30618;BME280;17384;51.214;9.202;2023-01-28T05:39:35;99762.22;;;-1.23;78.03
30618;BME280;17384;51.214;9.202;2023-01-28T05:42:00;99770.25;;;-1.12;77.92
30618;BME280;17384;51.214;9.202;2023-01-28T05:44:26;99759.13;;;-1.06;78.29
30618;BME280;17384;51.214;9.202;2023-01-28T05:46:51;99767.47;;;-1.10;78.75
30618;BME280;17384;51.214;9.202;2023-01-28T05:49:17;99767.22;;;-1.18;79.64
30618;BME280;17384;51.214;9.202;2023-01-28T05:51:42;99757.41;;;-1.18;79.87
30618;BME280;17384;51.214;9.202;2023-01-28T05:54:08;99778.91;;;-1.32;77.80
30618;BME280;17384;51.214;9.202;2023-01-28T05:56:34;99778.41;;;-1.37;76.00
30618;BME280;17384;51.214;9.202;2023-01-28T05:59:01;99781.09;;;-1.37;75.54
30618;BME280;17384;51.214;9.202;2023-01-28T06:01:27;99773.34;;;-1.29;75.10
30618;BME280;17384;51.214;9.202;2023-01-28T06:03:52;99782.28;;;-1.30;74.87
30618;BME280;17384;51.214;9.202;2023-01-28T06:06:18;99785.56;;;-1.26;75.14
30618;BME280;17384;51.214;9.202;2023-01-28T06:08:43;99777.25;;;-1.22;75.12
30618;BME280;17384;51.214;9.202;2023-01-28T06:11:09;99780.03;;;-1.23;75.58
30618;BME280;17384;51.214;9.202;2023-01-28T06:13:34;99787.84;;;-1.33;76.14
30618;BME280;17384;51.214;9.202;2023-01-28T06:15:59;99782.03;;;-1.38;76.18
30618;BME280;17384;51.214;9.202;2023-01-28T06:18:25;99784.00;;;-1.29;75.99
30618;BME280;17384;51.214;9.202;2023-01-28T06:20:51;99790.50;;;-1.33;75.79
30618;BME280;17384;51.214;9.202;2023-01-28T06:23:16;99789.06;;;-1.37;75.98
30618;BME280;17384;51.214;9.202;2023-01-28T06:25:42;99798.88;;;-1.38;76.10
30618;BME280;17384;51.214;9.202;2023-01-28T06:28:07;99802.59;;;-1.40;75.75
30618;BME280;17384;51.214;9.202;2023-01-28T06:30:34;99796.19;;;-1.38;74.59
30618;BME280;17384;51.214;9.202;2023-01-28T06:32:59;99808.16;;;-1.43;74.57
30618;BME280;17384;51.214;9.202;2023-01-28T06:35:25;99802.81;;;-1.43;74.90
30618;BME280;17384;51.214;9.202;2023-01-28T06:37:51;99808.50;;;-1.37;74.10
30618;BME280;17384;51.214;9.202;2023-01-28T06:40:17;99800.91;;;-1.41;74.25
30618;BME280;17384;51.214;9.202;2023-01-28T06:42:42;99803.06;;;-1.46;74.21
30618;BME280;17384;51.214;9.202;2023-01-28T06:45:08;99812.00;;;-1.47;73.99
30618;BME280;17384;51.214;9.202;2023-01-28T06:47:34;99817.72;;;-1.41;73.78
30618;BME280;17384;51.214;9.202;2023-01-28T06:49:59;99819.66;;;-1.43;73.49
30618;BME280;17384;51.214;9.202;2023-01-28T06:52:25;99818.06;;;-1.45;74.08
30618;BME280;17384;51.214;9.202;2023-01-28T06:54:50;99825.47;;;-1.38;73.12
30618;BME280;17384;51.214;9.202;2023-01-28T06:57:15;99827.63;;;-1.43;73.75
30618;BME280;17384;51.214;9.202;2023-01-28T06:59:41;99825.59;;;-1.39;73.89
30618;BME280;17384;51.214;9.202;2023-01-28T07:02:09;99832.84;;;-1.41;73.97
30618;BME280;17384;51.214;9.202;2023-01-28T07:04:35;99834.75;;;-1.43;74.08
30618;BME280;17384;51.214;9.202;2023-01-28T07:07:01;99827.13;;;-1.48;73.79
30618;BME280;17384;51.214;9.202;2023-01-28T07:09:27;99841.56;;;-1.39;73.27
30618;BME280;17384;51.214;9.202;2023-01-28T07:11:52;99846.38;;;-1.44;73.88
30618;BME280;17384;51.214;9.202;2023-01-28T07:14:17;99836.78;;;-1.23;74.66
30618;BME280;17384;51.214;9.202;2023-01-28T07:16:43;99842.59;;;-0.72;77.07
30618;BME280;17384;51.214;9.202;2023-01-28T07:19:08;99841.31;;;-1.01;72.23
30618;BME280;17384;51.214;9.202;2023-01-28T07:21:34;99832.47;;;-1.13;72.13
30618;BME280;17384;51.214;9.202;2023-01-28T07:23:59;99831.44;;;-1.23;72.04
30618;BME280;17384;51.214;9.202;2023-01-28T07:26:25;99839.19;;;-1.20;71.92
30618;BME280;17384;51.214;9.202;2023-01-28T07:28:50;99827.44;;;-1.28;72.49
30618;BME280;17384;51.214;9.202;2023-01-28T07:31:15;99835.63;;;-1.43;73.03
30618;BME280;17384;51.214;9.202;2023-01-28T07:33:41;99828.84;;;-1.36;73.05
30618;BME280;17384;51.214;9.202;2023-01-28T07:36:06;99835.41;;;-1.28;72.54
30618;BME280;17384;51.214;9.202;2023-01-28T07:38:32;99830.94;;;-1.28;72.69
30618;BME280;17384;51.214;9.202;2023-01-28T07:40:57;99835.53;;;-1.30;72.27
30618;BME280;17384;51.214;9.202;2023-01-28T07:43:23;99820.00;;;-1.36;73.32
30618;BME280;17384;51.214;9.202;2023-01-28T07:45:48;99828.38;;;-1.29;72.55
30618;BME280;17384;51.214;9.202;2023-01-28T07:48:14;99816.66;;;-1.27;72.32
30618;BME280;17384;51.214;9.202;2023-01-28T07:50:40;99820.13;;;-1.14;72.30
30618;BME280;17384;51.214;9.202;2023-01-28T07:53:08;99819.63;;;-1.08;71.69
30618;BME280;17384;51.214;9.202;2023-01-28T07:55:35;99831.34;;;-1.21;71.92
30618;BME280;17384;51.214;9.202;2023-01-28T07:58:02;99820.69;;;-1.21;72.10
30618;BME280;17384;51.214;9.202;2023-01-28T08:00:31;99815.47;;;-1.23;72.06
30618;BME280;17384;51.214;9.202;2023-01-28T08:02:58;99828.31;;;-1.17;71.93
30618;BME280;17384;51.214;9.202;2023-01-28T08:05:25;99842.50;;;-1.16;71.84
30618;BME280;17384;51.214;9.202;2023-01-28T08:07:54;99845.88;;;-1.14;71.95
30618;BME280;17384;51.214;9.202;2023-01-28T08:10:19;99839.22;;;-1.09;71.98
30618;BME280;17384;51.214;9.202;2023-01-28T08:12:56;99841.94;;;-0.97;71.92
30618;BME280;17384;51.214;9.202;2023-01-28T08:15:25;99845.84;;;-0.90;71.62
30618;BME280;17384;51.214;9.202;2023-01-28T08:17:55;99842.81;;;-0.86;71.02
30618;BME280;17384;51.214;9.202;2023-01-28T08:20:22;99834.28;;;-1.02;71.64
30618;BME280;17384;51.214;9.202;2023-01-28T08:22:48;99834.28;;;-1.02;71.04
30618;BME280;17384;51.214;9.202;2023-01-28T08:27:41;99838.91;;;-0.93;70.78
30618;BME280;17384;51.214;9.202;2023-01-28T08:30:07;99848.97;;;-0.96;71.28
30618;BME280;17384;51.214;9.202;2023-01-28T08:32:35;99842.72;;;-0.84;70.64
30618;BME280;17384;51.214;9.202;2023-01-28T08:35:01;99848.50;;;-0.90;70.92
30618;BME280;17384;51.214;9.202;2023-01-28T08:37:26;99838.06;;;-0.93;71.05
30618;BME280;17384;51.214;9.202;2023-01-28T08:40:01;99845.38;;;-0.84;71.00
30618;BME280;17384;51.214;9.202;2023-01-28T08:42:32;99841.97;;;-0.75;70.94
30618;BME280;17384;51.214;9.202;2023-01-28T08:44:57;99839.69;;;-0.69;70.55
30618;BME280;17384;51.214;9.202;2023-01-28T08:47:23;99859.06;;;-0.66;70.00
30618;BME280;17384;51.214;9.202;2023-01-28T08:49:49;99855.56;;;-0.67;68.79
30618;BME280;17384;51.214;9.202;2023-01-28T08:52:14;99857.25;;;-0.66;69.10
30618;BME280;17384;51.214;9.202;2023-01-28T08:54:40;99849.03;;;-0.52;69.11
30618;BME280;17384;51.214;9.202;2023-01-28T08:57:06;99842.97;;;-0.54;68.89
30618;BME280;17384;51.214;9.202;2023-01-28T08:59:31;99845.41;;;-0.40;68.37
30618;BME280;17384;51.214;9.202;2023-01-28T09:01:57;99849.53;;;-0.36;68.87
30618;BME280;17384;51.214;9.202;2023-01-28T09:04:23;99858.88;;;-0.30;68.87
30618;BME280;17384;51.214;9.202;2023-01-28T09:06:49;99859.47;;;-0.26;68.79
30618;BME280;17384;51.214;9.202;2023-01-28T09:09:14;99856.69;;;-0.14;68.56
30618;BME280;17384;51.214;9.202;2023-01-28T09:11:40;99867.97;;;-0.32;68.64
30618;BME280;17384;51.214;9.202;2023-01-28T09:14:06;99876.91;;;-0.22;68.84
30618;BME280;17384;51.214;9.202;2023-01-28T09:16:31;99885.91;;;-0.12;69.00
30618;BME280;17384;51.214;9.202;2023-01-28T09:18:57;99891.47;;;-0.26;68.60
30618;BME280;17384;51.214;9.202;2023-01-28T09:21:23;99893.16;;;-0.25;68.75
30618;BME280;17384;51.214;9.202;2023-01-28T09:23:48;99895.25;;;-0.29;68.78
30618;BME280;17384;51.214;9.202;2023-01-28T09:26:14;99893.75;;;-0.44;69.51
30618;BME280;17384;51.214;9.202;2023-01-28T09:28:40;99902.84;;;-0.58;70.32
30618;BME280;17384;51.214;9.202;2023-01-28T09:31:09;99910.31;;;-0.63;69.73
30618;BME280;17384;51.214;9.202;2023-01-28T09:33:36;99904.03;;;-0.62;69.39
30618;BME280;17384;51.214;9.202;2023-01-28T09:36:06;99903.41;;;-0.54;70.11
30618;BME280;17384;51.214;9.202;2023-01-28T09:38:32;99920.28;;;-0.43;69.61
30618;BME280;17384;51.214;9.202;2023-01-28T09:40:59;99917.41;;;-0.40;69.34
30618;BME280;17384;51.214;9.202;2023-01-28T09:43:53;99913.28;;;-0.21;68.65
30618;BME280;17384;51.214;9.202;2023-01-28T09:46:36;99933.53;;;-0.30;68.38
30618;BME280;17384;51.214;9.202;2023-01-28T09:49:17;99930.78;;;-0.06;67.99
30618;BME280;17384;51.214;9.202;2023-01-28T09:51:50;99937.06;;;-0.07;68.16
30618;BME280;17384;51.214;9.202;2023-01-28T09:56:54;99929.38;;;-0.45;69.43
30618;BME280;17384;51.214;9.202;2023-01-28T09:59:22;99927.13;;;-0.27;68.66
30618;BME280;17384;51.214;9.202;2023-01-28T10:01:57;99920.31;;;-0.20;68.70
30618;BME280;17384;51.214;9.202;2023-01-28T10:07:24;99927.75;;;-0.02;67.46
30618;BME280;17384;51.214;9.202;2023-01-28T10:10:18;99927.13;;;-0.16;67.32
30618;BME280;17384;51.214;9.202;2023-01-28T10:15:46;99930.00;;;-0.19;68.72
30618;BME280;17384;51.214;9.202;2023-01-28T10:18:14;99928.94;;;-0.17;68.95
30618;BME280;17384;51.214;9.202;2023-01-28T10:20:47;99942.28;;;-0.28;69.11
30618;BME280;17384;51.214;9.202;2023-01-28T10:23:21;99954.22;;;-0.45;69.84
30618;BME280;17384;51.214;9.202;2023-01-28T10:25:48;99940.88;;;-0.45;69.29
30618;BME280;17384;51.214;9.202;2023-01-28T10:28:20;99941.16;;;-0.25;68.10
30618;BME280;17384;51.214;9.202;2023-01-28T10:30:47;99933.88;;;-0.23;68.03
30618;BME280;17384;51.214;9.202;2023-01-28T10:33:27;99932.69;;;-0.08;67.51
30618;BME280;17384;51.214;9.202;2023-01-28T10:36:04;99927.13;;;0.06;67.50
30618;BME280;17384;51.214;9.202;2023-01-28T10:38:30;99922.41;;;-0.02;67.62
30618;BME280;17384;51.214;9.202;2023-01-28T10:41:00;99917.66;;;0.02;67.22
30618;BME280;17384;51.214;9.202;2023-01-28T10:43:30;99935.34;;;0.03;67.90
30618;BME280;17384;51.214;9.202;2023-01-28T10:46:10;99934.16;;;-0.04;68.43
30618;BME280;17384;51.214;9.202;2023-01-28T10:49:06;99935.38;;;0.25;67.46
30618;BME280;17384;51.214;9.202;2023-01-28T10:51:40;99925.91;;;0.21;67.33
30618;BME280;17384;51.214;9.202;2023-01-28T10:54:23;99925.19;;;-0.03;66.98
30618;BME280;17384;51.214;9.202;2023-01-28T10:56:52;99937.91;;;-0.07;67.63
30618;BME280;17384;51.214;9.202;2023-01-28T10:59:24;99934.91;;;-0.02;67.73
30618;BME280;17384;51.214;9.202;2023-01-28T11:02:00;99924.34;;;-0.04;68.43
30618;BME280;17384;51.214;9.202;2023-01-28T11:04:33;99925.06;;;0.10;67.05
30618;BME280;17384;51.214;9.202;2023-01-28T11:07:01;99935.13;;;-0.05;67.68
30618;BME280;17384;51.214;9.202;2023-01-28T11:12:09;99934.38;;;0.04;66.88
30618;BME280;17384;51.214;9.202;2023-01-28T11:14:34;99937.06;;;0.04;66.79
30618;BME280;17384;51.214;9.202;2023-01-28T11:17:00;99928.47;;;0.12;66.87
30618;BME280;17384;51.214;9.202;2023-01-28T11:19:34;99927.34;;;0.03;68.11
30618;BME280;17384;51.214;9.202;2023-01-28T11:22:01;99919.63;;;0.00;68.41
30618;BME280;17384;51.214;9.202;2023-01-28T11:24:32;99915.25;;;-0.12;68.93
30618;BME280;17384;51.214;9.202;2023-01-28T11:27:07;99922.38;;;-0.13;68.61
30618;BME280;17384;51.214;9.202;2023-01-28T11:29:38;99925.19;;;-0.14;69.15
30618;BME280;17384;51.214;9.202;2023-01-28T11:32:04;99913.41;;;-0.23;69.04
30618;BME280;17384;51.214;9.202;2023-01-28T11:34:33;99910.41;;;-0.07;69.03
30618;BME280;17384;51.214;9.202;2023-01-28T11:37:12;99902.38;;;-0.29;69.25
30618;BME280;17384;51.214;9.202;2023-01-28T11:39:40;99898.84;;;-0.41;69.88
30618;BME280;17384;51.214;9.202;2023-01-28T11:44:41;99891.72;;;-0.29;68.81
30618;BME280;17384;51.214;9.202;2023-01-28T11:47:39;99901.63;;;-0.43;68.99
30618;BME280;17384;51.214;9.202;2023-01-28T11:50:21;99911.78;;;-0.59;69.41
30618;BME280;17384;51.214;9.202;2023-01-28T11:53:17;99894.97;;;-0.37;69.19
30618;BME280;17384;51.214;9.202;2023-01-28T11:56:16;99902.09;;;-0.49;68.72
30618;BME280;17384;51.214;9.202;2023-01-28T12:04:25;99910.81;;;-0.47;68.81
30618;BME280;17384;51.214;9.202;2023-01-28T12:07:10;99894.34;;;-0.63;69.30
30618;BME280;17384;51.214;9.202;2023-01-28T12:18:27;99905.78;;;-0.85;69.83
30618;BME280;17384;51.214;9.202;2023-01-28T12:23:48;99904.81;;;-0.84;69.99
30618;BME280;17384;51.214;9.202;2023-01-28T12:26:40;99911.97;;;-0.84;69.09
30618;BME280;17384;51.214;9.202;2023-01-28T12:35:34;99904.69;;;-0.36;68.57
30618;BME280;17384;51.214;9.202;2023-01-28T12:38:13;99894.63;;;-0.32;68.20
30618;BME280;17384;51.214;9.202;2023-01-28T12:40:52;99910.59;;;-0.44;67.53
30618;BME280;17384;51.214;9.202;2023-01-28T12:52:06;99905.84;;;-0.51;68.57
30618;BME280;17384;51.214;9.202;2023-01-28T12:54:57;99909.75;;;-0.44;68.73
30618;BME280;17384;51.214;9.202;2023-01-28T12:57:29;99916.03;;;-0.56;68.11
30618;BME280;17384;51.214;9.202;2023-01-28T13:02:51;99906.25;;;-0.33;67.75
30618;BME280;17384;51.214;9.202;2023-01-28T13:05:21;99892.78;;;-0.43;69.02
30618;BME280;17384;51.214;9.202;2023-01-28T13:07:51;99897.28;;;-0.32;68.50
30618;BME280;17384;51.214;9.202;2023-01-28T13:10:41;99897.53;;;-0.36;67.88
30618;BME280;17384;51.214;9.202;2023-01-28T13:13:25;99882.63;;;-0.38;67.69
30618;BME280;17384;51.214;9.202;2023-01-28T13:15:52;99874.88;;;-0.30;66.95
30618;BME280;17384;51.214;9.202;2023-01-28T13:18:42;99878.00;;;-0.47;66.66
30618;BME280;17384;51.214;9.202;2023-01-28T13:21:27;99869.75;;;-0.44;67.09
30618;BME280;17384;51.214;9.202;2023-01-28T13:27:12;99885.03;;;-0.24;66.98
30618;BME280;17384;51.214;9.202;2023-01-28T13:29:47;99874.38;;;-0.24;66.46
30618;BME280;17384;51.214;9.202;2023-01-28T13:32:31;99883.97;;;-0.32;66.54
30618;BME280;17384;51.214;9.202;2023-01-28T13:37:58;99891.66;;;-0.52;67.22
30618;BME280;17384;51.214;9.202;2023-01-28T13:40:29;99879.81;;;-0.48;66.83
30618;BME280;17384;51.214;9.202;2023-01-28T13:43:23;99881.88;;;-0.40;66.42
30618;BME280;17384;51.214;9.202;2023-01-28T13:45:58;99869.19;;;-0.14;65.53
30618;BME280;17384;51.214;9.202;2023-01-28T13:48:45;99850.50;;;-0.48;66.71
30618;BME280;17384;51.214;9.202;2023-01-28T13:51:24;99843.59;;;-0.39;66.04
30618;BME280;17384;51.214;9.202;2023-01-28T13:54:13;99850.03;;;-0.19;65.43
30618;BME280;17384;51.214;9.202;2023-01-28T13:59:30;99840.69;;;-0.03;65.52
30618;BME280;17384;51.214;9.202;2023-01-28T14:16:46;99822.25;;;-0.17;62.54
30618;BME280;17384;51.214;9.202;2023-01-28T14:19:30;99818.88;;;-0.52;64.25
30618;BME280;17384;51.214;9.202;2023-01-28T14:21:57;99829.16;;;-0.25;63.30
30618;BME280;17384;51.214;9.202;2023-01-28T14:24:22;99822.84;;;0.09;62.27
30618;BME280;17384;51.214;9.202;2023-01-28T14:26:57;99828.91;;;0.11;62.58
30618;BME280;17384;51.214;9.202;2023-01-28T14:32:16;99856.25;;;1.41;58.62
30618;BME280;17384;51.214;9.202;2023-01-28T14:34:44;99841.63;;;1.96;56.91
30618;BME280;17384;51.214;9.202;2023-01-28T14:37:16;99851.88;;;2.31;55.14
30618;BME280;17384;51.214;9.202;2023-01-28T14:39:48;99853.44;;;2.34;55.16
30618;BME280;17384;51.214;9.202;2023-01-28T14:42:23;99861.56;;;2.13;55.70
30618;BME280;17384;51.214;9.202;2023-01-28T14:45:11;99854.84;;;1.98;56.21
30618;BME280;17384;51.214;9.202;2023-01-28T14:47:48;99856.47;;;1.80;57.01
30618;BME280;17384;51.214;9.202;2023-01-28T14:55:35;99856.88;;;1.03;59.33